Terminal Aerodrome Forecast
Issued by NWS

Home | Current Version | Previous Version | Text Only | Print | Product List | Glossary On
Versions: 1 2 3 4 5 6 7 8 9 10 11 12 13 14 15 16 17 18
000
FTUS41 KILN 281800 AAA
TAFLCK
TAF AMD
KLCK 281839Z 2819/2918 36012KT P6SM BKN040
     FM290000 VRB03KT P6SM SKC
     FM291500 18012KT P6SM SCT200=

USA.gov is the U.S. government's official web portal to all federal, state and local government web resources and services.